Ringsted, Denmark
Current Conditions -  °F | °C
As of 5:20 PM on Friday 21 Nov 2014 (Local Time) from EKRK Reporting Station
Few Clouds Few Clouds  
Wind Chill: 39°   Ceiling: Unl
Heat Index: 39°   Visibility: 3mi
Dew Point: 39°   Wind: 3mph
Humidity: 100%   Direction: 20°NNE
Pressure: 30.27"   Gusts: NA
Location:  55.44°N, 11.79°E
Report Text: EKRK 211620Z AUTO 02003KT 5000NDV FEW050/// 04/04 Q1025
Loading
Personal Weather Stations






























Interactive Weather Map New forecast layout! Learn more

10-Day Weather Forecast

Advertisements
Track Severe Weather on mobile